Time;durP1;ratioP1;P1;durP2;ratioP2;P2;SDS_P1;SDS_P2;PMS_P1;PMS_P2;Temp;Humidity;BMP_temperature;BMP_pressure;BME280_temperature;BME280_humidity;BME280_pressure;Samples;Min_cycle;Max_cycle;Signal;HPM_P1;HPM_P2
2022/01/21 00:00:58;;;;;;;;;;;20.30;26.50;;;;;;483693;247;1270;-75
2022/01/21 00:03:00;;;;;;;;;;;20.30;26.50;;;;;;483706;247;1149;-75
2022/01/21 00:05:01;;;;;;;;;;;20.60;26.30;;;;;;483759;246;1057;-75
2022/01/21 00:07:02;;;;;;;;;;;20.40;26.40;;;;;;483626;246;2200;-75
2022/01/21 00:09:04;;;;;;;;;;;20.30;26.50;;;;;;483913;246;1052;-74
2022/01/21 00:11:05;;;;;;;;;;;20.20;26.60;;;;;;483746;247;1154;-75
2022/01/21 00:13:15;;;;;;;;;;;20.30;26.50;;;;;;483818;246;1050;-75
2022/01/21 00:15:08;;;;;;;;;;;20.30;26.60;;;;;;483198;246;1377;-75
2022/01/21 00:17:09;;;;;;;;;;;20.30;26.50;;;;;;483761;247;1029;-75
2022/01/21 00:19:13;;;;;;;;;;;20.30;26.50;;;;;;483698;246;1139;-74
2022/01/21 00:30:31;;;;;;;;;;;20.20;26.60;;;;;;470033;246;1153;-74
2022/01/21 00:32:32;;;;;;;;;;;20.20;26.60;;;;;;483766;246;1264;-75
2022/01/21 00:34:33;;;;;;;;;;;20.30;26.60;;;;;;483717;247;1080;-75
2022/01/21 00:36:35;;;;;;;;;;;20.20;26.50;;;;;;483646;247;1235;-74
2022/01/21 00:38:36;;;;;;;;;;;20.20;26.50;;;;;;483797;246;1082;-75
2022/01/21 00:40:37;;;;;;;;;;;20.30;26.60;;;;;;483724;247;1208;-75
2022/01/21 00:45:08;;;;;;;;;;;20.20;26.60;;;;;;482391;246;1254;-75
2022/01/21 00:47:07;;;;;;;;;;;20.20;26.60;;;;;;483506;246;2192;-75
2022/01/21 00:49:08;;;;;;;;;;;20.10;26.60;;;;;;483676;247;942;-74
2022/01/21 00:51:09;;;;;;;;;;;20.10;26.60;;;;;;483622;245;1238;-75
2022/01/21 00:53:10;;;;;;;;;;;20.20;26.60;;;;;;483717;246;1127;-75
2022/01/21 00:55:12;;;;;;;;;;;20.20;26.60;;;;;;483685;247;1189;-75
2022/01/21 00:57:13;;;;;;;;;;;20.20;26.50;;;;;;483757;247;1092;-75
2022/01/21 00:59:14;;;;;;;;;;;20.20;26.60;;;;;;483776;246;1140;-75
2022/01/21 01:01:16;;;;;;;;;;;20.20;26.60;;;;;;483703;247;1197;-75
2022/01/21 01:03:19;;;;;;;;;;;20.30;26.50;;;;;;483699;246;1210;-74
2022/01/21 01:05:18;;;;;;;;;;;20.20;26.50;;;;;;483595;246;1272;-75
2022/01/21 01:07:20;;;;;;;;;;;20.30;26.50;;;;;;483668;247;2199;-75
2022/01/21 01:09:21;;;;;;;;;;;20.20;26.50;;;;;;483721;246;1117;-75
2022/01/21 01:11:30;;;;;;;;;;;20.10;26.60;;;;;;483633;247;1206;-75
2022/01/21 01:20:24;;;;;;;;;;;19.90;26.90;;;;;;483684;246;999;-75
2022/01/21 01:22:32;;;;;;;;;;;19.80;26.90;;;;;;483625;247;1157;-75
2022/01/21 01:29:05;;;;;;;;;;;19.50;27.20;;;;;;483706;246;1108;-74
2022/01/21 01:31:07;;;;;;;;;;;19.50;27.20;;;;;;483612;247;1130;-75
2022/01/21 01:33:10;;;;;;;;;;;19.40;27.30;;;;;;483762;246;1306;-75
2022/01/21 01:35:09;;;;;;;;;;;19.40;27.30;;;;;;483582;246;1443;-75
2022/01/21 01:37:21;;;;;;;;;;;19.40;27.40;;;;;;483594;246;1156;-75
2022/01/21 01:39:15;;;;;;;;;;;19.40;27.50;;;;;;483027;246;1408;-74
2022/01/21 01:41:17;;;;;;;;;;;19.30;27.50;;;;;;483436;246;1380;-75
2022/01/21 01:50:17;;;;;;;;;;;19.30;27.60;;;;;;483687;246;965;-75
2022/01/21 01:52:18;;;;;;;;;;;19.30;27.60;;;;;;483659;246;1158;-75
2022/01/21 01:54:20;;;;;;;;;;;19.30;27.60;;;;;;483701;247;953;-75
2022/01/21 01:56:21;;;;;;;;;;;19.30;27.60;;;;;;483663;246;1238;-74
2022/01/21 01:58:22;;;;;;;;;;;19.30;27.70;;;;;;483736;246;1106;-75
2022/01/21 02:00:24;;;;;;;;;;;19.30;27.70;;;;;;483670;246;1448;-74
2022/01/21 02:02:25;;;;;;;;;;;19.20;27.80;;;;;;483629;247;1043;-74
2022/01/21 02:04:26;;;;;;;;;;;19.20;27.70;;;;;;483667;247;1074;-74
2022/01/21 02:06:28;;;;;;;;;;;19.30;27.70;;;;;;483686;246;1072;-74
2022/01/21 02:08:29;;;;;;;;;;;19.30;27.70;;;;;;483707;246;2176;-74
2022/01/21 02:10:30;;;;;;;;;;;19.20;27.70;;;;;;483711;246;939;-74
2022/01/21 02:12:32;;;;;;;;;;;19.20;27.80;;;;;;483664;247;1301;-74
2022/01/21 02:14:35;;;;;;;;;;;19.20;27.80;;;;;;483734;247;935;-75
2022/01/21 02:16:42;;;;;;;;;;;19.10;27.80;;;;;;483480;246;1325;-74
2022/01/21 02:23:16;;;;;;;;;;;19.20;27.70;;;;;;483750;246;1138;-74
2022/01/21 02:25:19;;;;;;;;;;;19.20;27.80;;;;;;483709;247;938;-75
2022/01/21 02:27:19;;;;;;;;;;;19.20;27.70;;;;;;483584;246;2187;-75
2022/01/21 02:29:27;;;;;;;;;;;19.20;27.70;;;;;;483680;247;938;-75
2022/01/21 02:31:27;;;;;;;;;;;19.20;27.70;;;;;;483583;247;1504;-75
2022/01/21 02:33:28;;;;;;;;;;;19.20;27.70;;;;;;483717;246;980;-74
2022/01/21 02:35:30;;;;;;;;;;;19.20;27.70;;;;;;483662;247;1050;-74
2022/01/21 02:37:31;;;;;;;;;;;19.10;27.80;;;;;;483759;246;1111;-74
2022/01/21 02:39:32;;;;;;;;;;;19.10;27.80;;;;;;483724;247;1065;-75
2022/01/21 02:41:34;;;;;;;;;;;19.10;27.80;;;;;;483654;247;1043;-75
2022/01/21 02:43:35;;;;;;;;;;;19.10;27.80;;;;;;483706;246;953;-75
2022/01/21 02:45:37;;;;;;;;;;;19.10;27.70;;;;;;483752;246;994;-74
2022/01/21 02:47:38;;;;;;;;;;;19.10;27.80;;;;;;483760;246;2188;-75
2022/01/21 02:49:39;;;;;;;;;;;19.10;27.80;;;;;;483732;247;928;-75
2022/01/21 02:51:41;;;;;;;;;;;19.10;27.70;;;;;;483673;246;954;-75
2022/01/21 02:56:01;;;;;;;;;;;19.10;27.70;;;;;;483795;246;957;-75
2022/01/21 02:58:03;;;;;;;;;;;19.10;27.70;;;;;;483707;247;1043;-75
2022/01/21 03:00:04;;;;;;;;;;;19.20;27.70;;;;;;483761;246;1036;-75
2022/01/21 03:02:05;;;;;;;;;;;19.20;27.70;;;;;;483621;247;1108;-74
2022/01/21 03:04:07;;;;;;;;;;;19.10;27.70;;;;;;483644;246;965;-74
2022/01/21 03:06:08;;;;;;;;;;;19.10;27.80;;;;;;483651;246;1184;-75
2022/01/21 03:08:09;;;;;;;;;;;19.10;27.80;;;;;;483696;247;2124;-74
2022/01/21 03:10:10;;;;;;;;;;;19.00;27.80;;;;;;483771;246;1081;-75
2022/01/21 03:12:12;;;;;;;;;;;19.20;27.70;;;;;;483758;246;1173;-75
2022/01/21 03:14:13;;;;;;;;;;;19.10;27.70;;;;;;483697;247;977;-75
2022/01/21 03:16:14;;;;;;;;;;;19.10;27.70;;;;;;483708;246;1314;-75
2022/01/21 03:18:16;;;;;;;;;;;19.20;27.70;;;;;;483753;246;1246;-75
2022/01/21 03:20:17;;;;;;;;;;;19.10;27.70;;;;;;483745;247;1003;-74
2022/01/21 03:22:18;;;;;;;;;;;19.10;27.70;;;;;;483568;246;1105;-74
2022/01/21 03:24:20;;;;;;;;;;;19.10;27.70;;;;;;483703;246;1161;-74
2022/01/21 03:26:21;;;;;;;;;;;19.10;27.80;;;;;;483665;246;1697;-75
2022/01/21 03:28:22;;;;;;;;;;;19.10;27.70;;;;;;483706;246;2190;-74
2022/01/21 03:30:24;;;;;;;;;;;19.00;27.70;;;;;;483679;247;1260;-75
2022/01/21 03:32:25;;;;;;;;;;;19.10;27.70;;;;;;483595;247;1195;-75
2022/01/21 03:34:26;;;;;;;;;;;19.20;27.60;;;;;;483679;246;1047;-74
2022/01/21 03:36:28;;;;;;;;;;;19.30;27.60;;;;;;483616;247;1173;-75
2022/01/21 03:38:29;;;;;;;;;;;19.30;27.50;;;;;;483713;246;1101;-75
2022/01/21 03:40:30;;;;;;;;;;;19.40;27.50;;;;;;483702;246;1073;-75
2022/01/21 03:42:32;;;;;;;;;;;19.40;27.50;;;;;;483711;246;1058;-75
2022/01/21 03:44:33;;;;;;;;;;;19.50;27.40;;;;;;483718;247;962;-75
2022/01/21 03:46:34;;;;;;;;;;;19.60;27.30;;;;;;483673;247;1211;-74
2022/01/21 03:48:36;;;;;;;;;;;19.70;27.20;;;;;;483756;246;2199;-75
2022/01/21 03:50:37;;;;;;;;;;;19.70;27.10;;;;;;483740;246;1199;-75
2022/01/21 03:52:38;;;;;;;;;;;19.80;27.00;;;;;;483794;246;1054;-75
2022/01/21 03:54:40;;;;;;;;;;;19.90;27.00;;;;;;483771;246;1136;-75
2022/01/21 03:56:41;;;;;;;;;;;19.90;27.00;;;;;;483690;246;1209;-75
2022/01/21 03:58:42;;;;;;;;;;;19.90;27.00;;;;;;483747;247;1112;-74
2022/01/21 04:00:43;;;;;;;;;;;19.90;27.00;;;;;;483709;246;1207;-74
2022/01/21 04:02:45;;;;;;;;;;;19.90;27.00;;;;;;483706;247;1262;-75
2022/01/21 04:04:46;;;;;;;;;;;20.10;26.90;;;;;;483720;246;955;-75
2022/01/21 04:06:47;;;;;;;;;;;20.00;26.80;;;;;;483618;247;1229;-75
2022/01/21 04:08:49;;;;;;;;;;;20.00;26.80;;;;;;483725;246;2125;-75
2022/01/21 04:10:50;;;;;;;;;;;20.10;26.80;;;;;;483729;246;979;-75
2022/01/21 04:12:51;;;;;;;;;;;20.10;26.70;;;;;;483673;247;1112;-74
2022/01/21 04:14:53;;;;;;;;;;;20.10;26.70;;;;;;483745;246;1306;-75
2022/01/21 04:16:55;;;;;;;;;;;20.10;26.70;;;;;;483685;247;1255;-75
2022/01/21 04:18:56;;;;;;;;;;;20.10;26.80;;;;;;483684;247;1546;-75
2022/01/21 04:20:57;;;;;;;;;;;20.20;26.70;;;;;;483658;247;1093;-75
2022/01/21 04:22:59;;;;;;;;;;;20.10;26.60;;;;;;483776;246;1091;-75
2022/01/21 04:25:00;;;;;;;;;;;20.20;26.70;;;;;;483808;247;1171;-74
2022/01/21 04:27:01;;;;;;;;;;;20.20;26.70;;;;;;483798;246;1242;-75
2022/01/21 04:29:03;;;;;;;;;;;20.30;26.60;;;;;;483682;247;2137;-75
2022/01/21 04:31:04;;;;;;;;;;;20.20;26.70;;;;;;483632;247;1201;-75
2022/01/21 04:33:05;;;;;;;;;;;20.20;26.70;;;;;;483679;247;1111;-75
2022/01/21 04:35:07;;;;;;;;;;;20.20;26.70;;;;;;483719;246;1112;-75
2022/01/21 04:37:11;;;;;;;;;;;20.20;26.60;;;;;;483702;246;1168;-74
2022/01/21 04:39:15;;;;;;;;;;;20.30;26.60;;;;;;483627;246;1409;-75
2022/01/21 04:41:25;;;;;;;;;;;20.20;26.60;;;;;;483277;246;1368;-75
2022/01/21 04:47:58;;;;;;;;;;;20.40;26.50;;;;;;483694;246;2141;-74
2022/01/21 04:49:59;;;;;;;;;;;20.40;26.50;;;;;;483674;246;1084;-75
2022/01/21 04:52:04;;;;;;;;;;;20.30;26.50;;;;;;483560;247;1570;-75
2022/01/21 04:54:05;;;;;;;;;;;20.30;26.60;;;;;;483684;246;1335;-74
2022/01/21 04:56:06;;;;;;;;;;;20.30;26.50;;;;;;483581;247;1199;-75
2022/01/21 04:58:08;;;;;;;;;;;20.30;26.60;;;;;;483635;247;1175;-75
2022/01/21 05:00:09;;;;;;;;;;;20.40;26.60;;;;;;483604;247;1108;-74
2022/01/21 05:02:10;;;;;;;;;;;20.30;26.50;;;;;;483602;246;1083;-75
2022/01/21 05:04:12;;;;;;;;;;;20.40;26.50;;;;;;483810;246;1476;-75
2022/01/21 05:06:13;;;;;;;;;;;20.50;26.40;;;;;;483552;247;1131;-74
2022/01/21 05:08:24;;;;;;;;;;;20.40;26.50;;;;;;483597;246;2438;-74
2022/01/21 05:10:23;;;;;;;;;;;20.40;26.50;;;;;;483447;246;1319;-75
2022/01/21 05:12:24;;;;;;;;;;;20.30;26.60;;;;;;483570;247;1402;-74
2022/01/21 05:14:28;;;;;;;;;;;20.20;26.70;;;;;;483722;246;1336;-74
2022/01/21 05:16:32;;;;;;;;;;;20.10;26.70;;;;;;483222;246;1406;-74
2022/01/21 05:18:31;;;;;;;;;;;20.00;26.80;;;;;;483448;246;1353;-75
2022/01/21 05:20:32;;;;;;;;;;;19.90;26.90;;;;;;483621;246;1092;-75
2022/01/21 05:22:33;;;;;;;;;;;19.80;27.00;;;;;;483547;246;1076;-75
2022/01/21 05:24:35;;;;;;;;;;;19.60;27.10;;;;;;483644;246;1191;-75
2022/01/21 05:26:37;;;;;;;;;;;19.70;27.20;;;;;;483566;246;1236;-74
2022/01/21 05:28:37;;;;;;;;;;;19.60;27.30;;;;;;483540;246;2192;-74
2022/01/21 05:30:39;;;;;;;;;;;19.60;27.20;;;;;;483574;247;1017;-74
2022/01/21 05:32:40;;;;;;;;;;;19.50;27.30;;;;;;483634;247;1092;-74
2022/01/21 05:34:41;;;;;;;;;;;19.50;27.30;;;;;;483671;246;963;-75
2022/01/21 05:36:43;;;;;;;;;;;19.50;27.30;;;;;;483588;246;1228;-75
2022/01/21 05:38:44;;;;;;;;;;;19.50;27.40;;;;;;483712;246;1040;-76
2022/01/21 05:40:46;;;;;;;;;;;19.50;27.40;;;;;;483575;247;1209;-75
2022/01/21 05:42:47;;;;;;;;;;;19.40;27.50;;;;;;483690;246;1441;-75
2022/01/21 05:47:07;;;;;;;;;;;19.40;27.60;;;;;;483525;247;1137;-75
2022/01/21 05:49:09;;;;;;;;;;;19.50;27.60;;;;;;483465;246;2196;-75
2022/01/21 05:51:10;;;;;;;;;;;19.40;27.60;;;;;;483474;246;1195;-75
2022/01/21 05:53:12;;;;;;;;;;;19.40;27.60;;;;;;483653;246;1247;-75
2022/01/21 05:55:13;;;;;;;;;;;19.40;27.50;;;;;;483615;246;1347;-75
2022/01/21 05:57:16;;;;;;;;;;;19.40;27.50;;;;;;483589;246;1339;-75
2022/01/21 05:59:15;;;;;;;;;;;19.40;27.60;;;;;;483426;246;1863;-75
2022/01/21 06:01:16;;;;;;;;;;;19.40;27.60;;;;;;483483;246;1245;-75
2022/01/21 06:03:18;;;;;;;;;;;19.30;27.60;;;;;;483601;247;1179;-75
2022/01/21 06:05:19;;;;;;;;;;;19.30;27.70;;;;;;483590;246;1025;-75
2022/01/21 06:07:20;;;;;;;;;;;19.30;27.60;;;;;;483438;246;1440;-75
2022/01/21 06:09:22;;;;;;;;;;;19.30;27.60;;;;;;483565;246;2192;-74
2022/01/21 06:11:23;;;;;;;;;;;19.30;27.60;;;;;;483443;246;1221;-75
2022/01/21 06:13:24;;;;;;;;;;;19.30;27.60;;;;;;483421;246;1156;-75
2022/01/21 06:15:26;;;;;;;;;;;19.20;27.60;;;;;;483487;247;1085;-74
2022/01/21 06:17:27;;;;;;;;;;;19.20;27.60;;;;;;483463;246;1070;-75
2022/01/21 06:19:28;;;;;;;;;;;19.20;27.60;;;;;;483635;247;1117;-75
2022/01/21 06:21:30;;;;;;;;;;;19.20;27.60;;;;;;483501;246;1097;-75
2022/01/21 06:23:31;;;;;;;;;;;19.30;27.60;;;;;;483521;246;1068;-75
2022/01/21 06:25:32;;;;;;;;;;;19.30;27.50;;;;;;483495;246;1172;-75
2022/01/21 06:27:36;;;;;;;;;;;19.30;27.50;;;;;;483513;246;1094;-75
2022/01/21 06:29:35;;;;;;;;;;;19.20;27.50;;;;;;483387;246;2200;-75
2022/01/21 06:31:36;;;;;;;;;;;19.20;27.50;;;;;;483457;246;960;-75
2022/01/21 06:33:37;;;;;;;;;;;19.20;27.50;;;;;;483511;247;1115;-75
2022/01/21 06:35:39;;;;;;;;;;;19.20;27.60;;;;;;483499;246;1076;-75
2022/01/21 06:37:40;;;;;;;;;;;19.20;27.50;;;;;;483469;247;1081;-75
2022/01/21 06:39:42;;;;;;;;;;;19.10;27.50;;;;;;483466;247;1186;-74
2022/01/21 06:41:46;;;;;;;;;;;19.20;27.50;;;;;;483526;247;1174;-74
2022/01/21 06:43:44;;;;;;;;;;;19.20;27.50;;;;;;483284;246;1404;-74
2022/01/21 06:45:45;;;;;;;;;;;19.10;27.50;;;;;;483434;247;1120;-74
2022/01/21 06:47:47;;;;;;;;;;;19.10;27.50;;;;;;483326;247;1331;-74
2022/01/21 06:49:48;;;;;;;;;;;19.20;27.50;;;;;;483365;246;2120;-74
2022/01/21 06:51:49;;;;;;;;;;;19.20;27.50;;;;;;483277;246;1255;-74
2022/01/21 06:53:51;;;;;;;;;;;19.20;27.50;;;;;;483297;246;1058;-74
2022/01/21 06:55:53;;;;;;;;;;;19.20;27.40;;;;;;483408;246;1217;-74
2022/01/21 06:57:53;;;;;;;;;;;19.20;27.40;;;;;;483450;246;1366;-74
2022/01/21 06:59:55;;;;;;;;;;;19.10;27.40;;;;;;483418;246;953;-74
2022/01/21 07:01:56;;;;;;;;;;;19.10;27.50;;;;;;483300;247;1231;-74
2022/01/21 07:03:57;;;;;;;;;;;19.10;27.50;;;;;;483327;247;1168;-74
2022/01/21 07:05:59;;;;;;;;;;;19.10;27.50;;;;;;483317;247;1550;-74
2022/01/21 07:08:01;;;;;;;;;;;19.10;27.50;;;;;;483299;246;1388;-74
2022/01/21 07:10:01;;;;;;;;;;;19.20;27.40;;;;;;483280;246;2129;-74
2022/01/21 07:12:02;;;;;;;;;;;19.20;27.50;;;;;;483155;246;1555;-74
2022/01/21 07:14:04;;;;;;;;;;;19.10;27.50;;;;;;482995;246;1087;-74
2022/01/21 07:16:05;;;;;;;;;;;19.10;27.50;;;;;;483081;246;1183;-74
2022/01/21 07:18:06;;;;;;;;;;;19.10;27.40;;;;;;483188;246;1238;-74
2022/01/21 07:20:08;;;;;;;;;;;19.20;27.50;;;;;;483103;247;1025;-75
2022/01/21 07:22:09;;;;;;;;;;;19.10;27.40;;;;;;483105;246;1197;-74
2022/01/21 07:24:10;;;;;;;;;;;19.10;27.50;;;;;;483175;246;1063;-74
2022/01/21 07:26:13;;;;;;;;;;;19.10;27.50;;;;;;483235;247;1279;-74
2022/01/21 07:28:13;;;;;;;;;;;19.10;27.40;;;;;;483248;247;1235;-74
2022/01/21 07:30:15;;;;;;;;;;;19.10;27.40;;;;;;483182;246;2184;-74
2022/01/21 07:32:16;;;;;;;;;;;19.10;27.50;;;;;;483196;246;1067;-74
2022/01/21 07:34:17;;;;;;;;;;;19.20;27.40;;;;;;483139;247;1056;-74
2022/01/21 07:36:19;;;;;;;;;;;19.30;27.30;;;;;;483152;247;1378;-74
2022/01/21 07:38:20;;;;;;;;;;;19.30;27.30;;;;;;483215;246;1024;-74
2022/01/21 07:40:21;;;;;;;;;;;19.40;27.30;;;;;;483247;246;1057;-74
2022/01/21 07:42:24;;;;;;;;;;;19.40;27.10;;;;;;483090;246;1247;-74
2022/01/21 07:44:24;;;;;;;;;;;19.40;27.10;;;;;;483001;247;1326;-74
2022/01/21 07:46:26;;;;;;;;;;;19.50;27.00;;;;;;483212;246;1243;-74
2022/01/21 07:48:26;;;;;;;;;;;19.60;26.90;;;;;;483156;246;995;-74
2022/01/21 07:50:28;;;;;;;;;;;19.60;26.80;;;;;;483077;246;2109;-74
2022/01/21 07:52:29;;;;;;;;;;;19.60;26.80;;;;;;483093;246;1119;-74
2022/01/21 07:54:30;;;;;;;;;;;19.60;26.80;;;;;;482917;246;1303;-74
2022/01/21 07:56:33;;;;;;;;;;;19.50;26.90;;;;;;483025;246;1123;-74
2022/01/21 07:58:33;;;;;;;;;;;19.40;26.90;;;;;;483226;246;1534;-74
2022/01/21 08:00:35;;;;;;;;;;;19.40;27.00;;;;;;482983;247;1379;-74
2022/01/21 08:02:36;;;;;;;;;;;19.30;26.90;;;;;;483022;246;1097;-74
2022/01/21 08:04:37;;;;;;;;;;;19.30;26.90;;;;;;483035;246;1046;-74
2022/01/21 08:06:39;;;;;;;;;;;19.30;26.90;;;;;;483103;246;1236;-74
2022/01/21 08:08:40;;;;;;;;;;;19.30;26.80;;;;;;483166;246;1284;-74
2022/01/21 08:10:41;;;;;;;;;;;19.30;26.90;;;;;;483010;246;2129;-74
2022/01/21 08:12:42;;;;;;;;;;;19.40;26.90;;;;;;483139;246;1182;-74
2022/01/21 08:14:44;;;;;;;;;;;19.30;26.80;;;;;;483177;246;1080;-74
2022/01/21 08:16:45;;;;;;;;;;;19.30;26.90;;;;;;482871;246;1112;-74
2022/01/21 08:18:46;;;;;;;;;;;19.20;26.90;;;;;;482914;247;1104;-74
2022/01/21 08:20:48;;;;;;;;;;;19.20;26.90;;;;;;482791;246;1052;-74
2022/01/21 08:22:49;;;;;;;;;;;19.20;26.90;;;;;;483163;246;1170;-74
2022/01/21 08:24:50;;;;;;;;;;;19.20;26.80;;;;;;483045;246;1066;-74
2022/01/21 08:26:52;;;;;;;;;;;19.20;26.80;;;;;;483077;246;1160;-74
2022/01/21 08:28:53;;;;;;;;;;;19.30;26.90;;;;;;482992;246;1053;-74
2022/01/21 08:30:54;;;;;;;;;;;19.20;26.80;;;;;;482968;246;1002;-74
2022/01/21 08:32:56;;;;;;;;;;;19.30;26.90;;;;;;483011;246;1129;-74
2022/01/21 08:34:57;;;;;;;;;;;19.30;26.80;;;;;;482998;247;1106;-74
2022/01/21 08:36:58;;;;;;;;;;;19.30;26.80;;;;;;482953;247;1146;-73
2022/01/21 08:39:00;;;;;;;;;;;19.30;26.80;;;;;;482948;246;997;-74
2022/01/21 08:41:01;;;;;;;;;;;19.20;26.80;;;;;;482918;247;1095;-74
2022/01/21 08:43:02;;;;;;;;;;;19.20;26.80;;;;;;483144;246;1058;-75
2022/01/21 08:45:04;;;;;;;;;;;19.20;26.80;;;;;;483072;247;974;-74
2022/01/21 08:47:05;;;;;;;;;;;19.30;26.80;;;;;;482860;242;1308;-74
2022/01/21 08:49:08;;;;;;;;;;;19.30;26.80;;;;;;482989;247;2211;-74
2022/01/21 08:51:10;;;;;;;;;;;19.20;26.80;;;;;;482865;246;1270;-74
2022/01/21 08:53:36;;;;;;;;;;;19.20;26.90;;;;;;483333;246;1238;-74
2022/01/21 08:55:11;;;;;;;;;;;19.30;26.80;;;;;;481508;246;1091;-74
2022/01/21 08:57:12;;;;;;;;;;;19.30;26.80;;;;;;483457;246;1108;-74
2022/01/21 08:59:14;;;;;;;;;;;19.30;26.80;;;;;;483040;246;834;-74
2022/01/21 09:01:16;;;;;;;;;;;19.30;26.80;;;;;;483508;246;1255;-74
2022/01/21 09:03:16;;;;;;;;;;;19.30;26.90;;;;;;483071;246;1256;-74
2022/01/21 09:05:18;;;;;;;;;;;19.30;26.80;;;;;;483127;246;993;-74
2022/01/21 09:07:19;;;;;;;;;;;19.20;26.80;;;;;;482804;247;1169;-74
2022/01/21 09:09:20;;;;;;;;;;;19.20;26.80;;;;;;482790;246;2192;-74
2022/01/21 09:11:22;;;;;;;;;;;19.10;26.90;;;;;;482832;246;1146;-74
2022/01/21 09:13:26;;;;;;;;;;;19.20;26.90;;;;;;483131;247;1048;-74
2022/01/21 09:15:25;;;;;;;;;;;19.20;27.00;;;;;;483463;246;1284;-74
2022/01/21 09:17:26;;;;;;;;;;;19.20;27.00;;;;;;483121;247;1277;-74
2022/01/21 09:19:27;;;;;;;;;;;19.10;27.00;;;;;;483500;246;803;-74
2022/01/21 09:21:28;;;;;;;;;;;19.20;27.00;;;;;;482929;247;1397;-74
2022/01/21 09:23:30;;;;;;;;;;;19.10;27.00;;;;;;483445;246;1056;-73
2022/01/21 09:25:31;;;;;;;;;;;19.20;27.00;;;;;;483431;246;1430;-74
2022/01/21 09:27:32;;;;;;;;;;;19.40;26.80;;;;;;482990;246;1448;-74
2022/01/21 09:29:34;;;;;;;;;;;19.30;26.90;;;;;;483177;246;2259;-74
2022/01/21 09:31:35;;;;;;;;;;;19.20;26.90;;;;;;483288;246;1515;-74
2022/01/21 09:33:37;;;;;;;;;;;19.10;26.90;;;;;;483120;246;1054;-74
2022/01/21 09:35:38;;;;;;;;;;;19.10;27.00;;;;;;482979;247;768;-74
2022/01/21 09:37:39;;;;;;;;;;;19.20;27.00;;;;;;482844;247;1493;-74
2022/01/21 09:39:41;;;;;;;;;;;19.10;27.00;;;;;;482854;247;823;-74
2022/01/21 09:41:43;;;;;;;;;;;19.20;27.00;;;;;;482826;247;1172;-74
2022/01/21 09:43:44;;;;;;;;;;;19.20;27.00;;;;;;483564;246;1058;-74
2022/01/21 09:45:45;;;;;;;;;;;19.20;27.00;;;;;;482999;247;793;-74
2022/01/21 09:47:47;;;;;;;;;;;19.10;26.90;;;;;;483404;246;1085;-74
2022/01/21 09:49:48;;;;;;;;;;;19.20;27.00;;;;;;483029;246;2173;-74
2022/01/21 09:51:49;;;;;;;;;;;19.10;27.00;;;;;;482797;246;1056;-74
2022/01/21 09:53:50;;;;;;;;;;;19.20;27.00;;;;;;483155;246;1224;-74
2022/01/21 09:55:52;;;;;;;;;;;19.20;27.00;;;;;;483557;246;817;-74
2022/01/21 09:57:53;;;;;;;;;;;19.20;27.00;;;;;;483092;247;1276;-74
2022/01/21 09:59:55;;;;;;;;;;;19.10;27.10;;;;;;483534;246;761;-74
2022/01/21 10:01:55;;;;;;;;;;;19.20;27.00;;;;;;483118;247;1408;-74
2022/01/21 10:03:57;;;;;;;;;;;19.20;27.10;;;;;;482926;246;1141;-75
2022/01/21 10:05:58;;;;;;;;;;;19.20;27.10;;;;;;483228;246;1286;-74
2022/01/21 10:07:59;;;;;;;;;;;19.10;27.10;;;;;;482817;246;1018;-74
2022/01/21 10:10:07;;;;;;;;;;;19.20;27.10;;;;;;482695;247;2139;-74
2022/01/21 10:12:02;;;;;;;;;;;19.20;27.10;;;;;;482365;246;1344;-74
2022/01/21 10:14:03;;;;;;;;;;;19.20;27.10;;;;;;483691;246;945;-74
2022/01/21 10:16:05;;;;;;;;;;;19.20;27.10;;;;;;482761;246;1102;-74
2022/01/21 10:18:06;;;;;;;;;;;19.10;27.10;;;;;;483014;246;1118;-74
2022/01/21 10:20:07;;;;;;;;;;;19.20;27.10;;;;;;482919;246;1076;-74
2022/01/21 10:22:11;;;;;;;;;;;19.20;27.10;;;;;;482883;247;1137;-74
2022/01/21 10:24:10;;;;;;;;;;;19.20;27.10;;;;;;482676;246;1316;-74
2022/01/21 10:26:11;;;;;;;;;;;19.20;27.00;;;;;;482791;247;1161;-74
2022/01/21 10:28:13;;;;;;;;;;;19.10;27.00;;;;;;482902;246;1097;-74
2022/01/21 10:30:14;;;;;;;;;;;19.20;27.00;;;;;;482861;247;2208;-74
2022/01/21 10:32:15;;;;;;;;;;;19.30;26.90;;;;;;482903;246;1100;-74
2022/01/21 10:34:17;;;;;;;;;;;19.30;26.90;;;;;;482954;246;1157;-74
2022/01/21 10:36:24;;;;;;;;;;;19.30;26.90;;;;;;482946;246;1280;-74
2022/01/21 10:38:27;;;;;;;;;;;19.20;26.90;;;;;;482661;246;1191;-74
2022/01/21 10:40:24;;;;;;;;;;;19.20;26.90;;;;;;482457;246;1334;-74
2022/01/21 10:42:25;;;;;;;;;;;19.10;27.00;;;;;;482938;246;1205;-74
2022/01/21 10:44:28;;;;;;;;;;;19.20;27.00;;;;;;482961;246;1161;-74
2022/01/21 10:46:28;;;;;;;;;;;19.20;26.90;;;;;;482851;246;1245;-74
2022/01/21 10:48:29;;;;;;;;;;;19.20;26.90;;;;;;482885;246;1120;-74
2022/01/21 10:50:31;;;;;;;;;;;19.20;26.90;;;;;;482786;247;2184;-74
2022/01/21 10:52:32;;;;;;;;;;;19.20;26.90;;;;;;482805;246;1408;-74
2022/01/21 10:54:33;;;;;;;;;;;19.20;26.80;;;;;;482817;246;1121;-74
2022/01/21 10:56:35;;;;;;;;;;;19.10;26.80;;;;;;482806;246;1627;-74
2022/01/21 10:58:56;;;;;;;;;;;19.10;26.80;;;;;;482928;246;2330;-74
2022/01/21 11:00:56;;;;;;;;;;;19.20;26.80;;;;;;482915;246;1786;-74
2022/01/21 11:02:58;;;;;;;;;;;19.10;26.90;;;;;;482785;247;1131;-74
2022/01/21 11:05:01;;;;;;;;;;;19.10;26.80;;;;;;482785;246;1082;-74
2022/01/21 11:07:00;;;;;;;;;;;19.10;26.90;;;;;;482741;246;1341;-75
2022/01/21 11:09:02;;;;;;;;;;;19.10;26.90;;;;;;482979;246;1009;-76
2022/01/21 11:11:03;;;;;;;;;;;19.10;26.90;;;;;;482985;246;2112;-76
2022/01/21 11:13:04;;;;;;;;;;;19.10;26.90;;;;;;483003;246;1452;-76
2022/01/21 11:15:05;;;;;;;;;;;19.20;26.90;;;;;;482888;246;963;-76
2022/01/21 11:17:07;;;;;;;;;;;19.20;26.90;;;;;;482786;246;1123;-76
2022/01/21 11:19:11;;;;;;;;;;;19.20;26.80;;;;;;482900;246;1195;-76
2022/01/21 11:21:10;;;;;;;;;;;19.10;26.80;;;;;;482735;246;1334;-74
2022/01/21 11:23:11;;;;;;;;;;;19.20;26.80;;;;;;482869;247;1039;-76
2022/01/21 11:25:13;;;;;;;;;;;19.10;26.90;;;;;;482833;246;1077;-76
2022/01/21 11:27:14;;;;;;;;;;;19.10;26.80;;;;;;482959;246;1348;-76
2022/01/21 11:29:17;;;;;;;;;;;19.20;26.80;;;;;;483093;247;977;-76
2022/01/21 11:31:16;;;;;;;;;;;19.10;26.80;;;;;;482819;246;2200;-76
2022/01/21 11:33:18;;;;;;;;;;;19.10;26.80;;;;;;482996;246;1119;-76
2022/01/21 11:35:20;;;;;;;;;;;19.10;26.80;;;;;;483017;246;1088;-76
2022/01/21 11:37:20;;;;;;;;;;;19.20;26.80;;;;;;482991;246;1050;-76
2022/01/21 11:39:23;;;;;;;;;;;19.20;26.80;;;;;;482883;246;1050;-76
2022/01/21 11:41:25;;;;;;;;;;;19.20;26.80;;;;;;482807;246;1456;-76
2022/01/21 11:43:26;;;;;;;;;;;19.20;26.80;;;;;;482876;246;1126;-76
2022/01/21 11:45:43;;;;;;;;;;;19.30;26.80;;;;;;482907;247;1267;-76
2022/01/21 11:47:49;;;;;;;;;;;19.20;26.80;;;;;;482039;246;1339;-76
2022/01/21 11:49:39;;;;;;;;;;;19.20;26.80;;;;;;482116;246;1441;-73
2022/01/21 11:51:41;;;;;;;;;;;19.30;26.80;;;;;;482812;246;2188;-76
2022/01/21 11:53:42;;;;;;;;;;;19.20;26.70;;;;;;483065;246;966;-76
2022/01/21 11:55:45;;;;;;;;;;;19.20;26.80;;;;;;482897;246;1000;-76
2022/01/21 11:57:45;;;;;;;;;;;19.10;26.80;;;;;;482837;246;1289;-76
2022/01/21 11:59:59;;;;;;;;;;;19.10;26.70;;;;;;482885;247;1042;-75
2022/01/21 12:01:52;;;;;;;;;;;19.20;26.80;;;;;;482198;246;1439;-75
2022/01/21 12:03:53;;;;;;;;;;;19.20;26.80;;;;;;482748;247;1131;-75
2022/01/21 12:05:54;;;;;;;;;;;19.20;26.80;;;;;;482845;246;1031;-75
2022/01/21 12:07:57;;;;;;;;;;;19.20;26.80;;;;;;482753;247;1067;-75
2022/01/21 12:09:57;;;;;;;;;;;19.20;26.70;;;;;;482735;246;1327;-76
2022/01/21 12:11:58;;;;;;;;;;;19.20;26.60;;;;;;482774;246;2125;-75
2022/01/21 12:14:01;;;;;;;;;;;19.20;26.60;;;;;;482749;247;1024;-75
2022/01/21 12:18:31;;;;;;;;;;;19.30;26.60;;;;;;482858;247;982;-75
2022/01/21 12:20:21;;;;;;;;;;;19.20;26.50;;;;;;482081;246;1291;-75
2022/01/21 12:22:22;;;;;;;;;;;19.10;26.50;;;;;;482851;247;1095;-75
2022/01/21 12:24:24;;;;;;;;;;;19.10;26.60;;;;;;482848;246;1138;-75
2022/01/21 12:26:25;;;;;;;;;;;19.10;26.50;;;;;;482893;246;1482;-75
2022/01/21 12:28:26;;;;;;;;;;;19.20;26.50;;;;;;483074;247;1052;-75
2022/01/21 12:30:28;;;;;;;;;;;19.20;26.40;;;;;;482939;246;2121;-75
2022/01/21 12:32:37;;;;;;;;;;;19.20;26.40;;;;;;482976;246;1445;-75
2022/01/21 12:34:30;;;;;;;;;;;19.10;26.40;;;;;;482373;246;1422;-75
2022/01/21 12:36:33;;;;;;;;;;;19.20;26.40;;;;;;483058;246;1229;-75
2022/01/21 12:41:05;;;;;;;;;;;19.20;26.30;;;;;;483006;247;1297;-75
2022/01/21 12:43:07;;;;;;;;;;;19.30;26.20;;;;;;483002;246;1222;-75
2022/01/21 12:45:08;;;;;;;;;;;19.20;26.20;;;;;;482934;247;1052;-75
2022/01/21 12:47:09;;;;;;;;;;;19.20;26.20;;;;;;483027;246;1093;-75